sensor_id;sensor_type;location;lat;lon;timestamp;pressure;altitude;pressure_sealevel;temperature;humidity
35848;BME280;22332;51.954;20.118;2023-01-30T00:00:38;99917.33;;;1.87;81.51
35848;BME280;22332;51.954;20.118;2023-01-30T00:03:58;99911.64;;;1.88;81.30
35848;BME280;22332;51.954;20.118;2023-01-30T00:07:03;99909.45;;;1.87;81.20
35848;BME280;22332;51.954;20.118;2023-01-30T00:10:10;99906.05;;;1.85;81.45
35848;BME280;22332;51.954;20.118;2023-01-30T00:13:16;99904.05;;;1.81;81.36
35848;BME280;22332;51.954;20.118;2023-01-30T00:16:22;99894.52;;;1.77;81.46
35848;BME280;22332;51.954;20.118;2023-01-30T00:19:27;99885.85;;;1.75;81.55
35848;BME280;22332;51.954;20.118;2023-01-30T00:22:33;99879.73;;;1.77;81.51
35848;BME280;22332;51.954;20.118;2023-01-30T00:25:38;99871.61;;;1.81;81.59
35848;BME280;22332;51.954;20.118;2023-01-30T00:28:44;99857.23;;;1.83;81.36
35848;BME280;22332;51.954;20.118;2023-01-30T00:31:49;99853.61;;;1.82;81.49
35848;BME280;22332;51.954;20.118;2023-01-30T00:34:55;99848.30;;;1.78;81.43
35848;BME280;22332;51.954;20.118;2023-01-30T00:38:01;99848.02;;;1.77;81.36
35848;BME280;22332;51.954;20.118;2023-01-30T00:41:06;99835.66;;;1.76;81.32
35848;BME280;22332;51.954;20.118;2023-01-30T00:44:13;99828.85;;;1.73;81.26
35848;BME280;22332;51.954;20.118;2023-01-30T00:47:37;99821.44;;;1.71;81.41
35848;BME280;22332;51.954;20.118;2023-01-30T00:50:42;99816.24;;;1.70;81.19
35848;BME280;22332;51.954;20.118;2023-01-30T00:53:49;99809.00;;;1.73;81.27
35848;BME280;22332;51.954;20.118;2023-01-30T00:56:55;99801.48;;;1.80;81.28
35848;BME280;22332;51.954;20.118;2023-01-30T01:00:03;99792.96;;;1.87;81.33
35848;BME280;22332;51.954;20.118;2023-01-30T01:03:09;99780.03;;;1.88;81.15
35848;BME280;22332;51.954;20.118;2023-01-30T01:06:15;99776.71;;;1.88;80.96
35848;BME280;22332;51.954;20.118;2023-01-30T01:09:20;99767.64;;;1.85;80.96
35848;BME280;22332;51.954;20.118;2023-01-30T01:12:26;99767.03;;;1.82;80.91
35848;BME280;22332;51.954;20.118;2023-01-30T01:15:31;99757.61;;;1.79;81.00
35848;BME280;22332;51.954;20.118;2023-01-30T01:18:37;99746.67;;;1.72;81.03
35848;BME280;22332;51.954;20.118;2023-01-30T01:21:44;99737.02;;;1.67;80.91
35848;BME280;22332;51.954;20.118;2023-01-30T01:24:50;99730.10;;;1.66;81.00
35848;BME280;22332;51.954;20.118;2023-01-30T01:27:55;99721.59;;;1.67;80.93
35848;BME280;22332;51.954;20.118;2023-01-30T01:31:02;99714.21;;;1.70;80.74
35848;BME280;22332;51.954;20.118;2023-01-30T01:34:11;99703.97;;;1.71;80.59
35848;BME280;22332;51.954;20.118;2023-01-30T01:37:17;99696.31;;;1.68;80.42
35848;BME280;22332;51.954;20.118;2023-01-30T01:40:24;99701.21;;;1.65;80.48
35848;BME280;22332;51.954;20.118;2023-01-30T01:44:05;99700.35;;;1.63;80.54
35848;BME280;22332;51.954;20.118;2023-01-30T01:47:11;99696.90;;;1.62;80.53
35848;BME280;22332;51.954;20.118;2023-01-30T01:50:20;99696.35;;;1.60;80.45
35848;BME280;22332;51.954;20.118;2023-01-30T01:53:30;99696.73;;;1.54;80.40
35848;BME280;22332;51.954;20.118;2023-01-30T01:56:40;99689.48;;;1.52;80.52
35848;BME280;22332;51.954;20.118;2023-01-30T01:59:50;99677.01;;;1.55;80.34
35848;BME280;22332;51.954;20.118;2023-01-30T02:02:59;99675.33;;;1.62;80.46
35848;BME280;22332;51.954;20.118;2023-01-30T02:06:06;99668.36;;;1.66;80.46
35848;BME280;22332;51.954;20.118;2023-01-30T02:09:14;99664.77;;;1.70;80.29
35848;BME280;22332;51.954;20.118;2023-01-30T02:12:20;99659.61;;;1.68;79.97
35848;BME280;22332;51.954;20.118;2023-01-30T02:15:26;99651.89;;;1.64;79.85
35848;BME280;22332;51.954;20.118;2023-01-30T02:18:33;99649.52;;;1.60;79.97
35848;BME280;22332;51.954;20.118;2023-01-30T02:29:14;99633.32;;;1.46;80.07
35848;BME280;22332;51.954;20.118;2023-01-30T02:32:30;99628.98;;;1.41;80.05
35848;BME280;22332;51.954;20.118;2023-01-30T02:35:44;99620.23;;;1.41;80.00
35848;BME280;22332;51.954;20.118;2023-01-30T02:38:59;99616.47;;;1.42;80.20
35848;BME280;22332;51.954;20.118;2023-01-30T02:42:13;99609.63;;;1.47;80.08
35848;BME280;22332;51.954;20.118;2023-01-30T02:45:28;99598.35;;;1.52;80.17
35848;BME280;22332;51.954;20.118;2023-01-30T02:48:38;99590.80;;;1.52;80.19
35848;BME280;22332;51.954;20.118;2023-01-30T02:51:47;99583.66;;;1.52;79.97
35848;BME280;22332;51.954;20.118;2023-01-30T02:54:54;99575.97;;;1.47;80.19
35848;BME280;22332;51.954;20.118;2023-01-30T02:58:01;99562.89;;;1.46;80.20
35848;BME280;22332;51.954;20.118;2023-01-30T03:01:28;99557.95;;;1.44;80.14
35848;BME280;22332;51.954;20.118;2023-01-30T03:04:51;99560.76;;;1.39;80.04
35848;BME280;22332;51.954;20.118;2023-01-30T03:08:10;99553.69;;;1.33;79.95
35848;BME280;22332;51.954;20.118;2023-01-30T03:11:26;99546.51;;;1.26;79.99
35848;BME280;22332;51.954;20.118;2023-01-30T03:14:34;99532.62;;;1.24;79.97
35848;BME280;22332;51.954;20.118;2023-01-30T03:17:45;99520.77;;;1.28;79.89
35848;BME280;22332;51.954;20.118;2023-01-30T03:20:53;99510.01;;;1.31;79.75
35848;BME280;22332;51.954;20.118;2023-01-30T03:23:59;99496.91;;;1.30;79.63
35848;BME280;22332;51.954;20.118;2023-01-30T03:27:09;99479.85;;;1.29;79.61
35848;BME280;22332;51.954;20.118;2023-01-30T03:30:16;99469.09;;;1.28;79.53
35848;BME280;22332;51.954;20.118;2023-01-30T03:33:24;99467.33;;;1.23;79.49
35848;BME280;22332;51.954;20.118;2023-01-30T03:36:29;99459.01;;;1.19;79.30
35848;BME280;22332;51.954;20.118;2023-01-30T03:39:35;99448.01;;;1.14;79.32
35848;BME280;22332;51.954;20.118;2023-01-30T03:42:43;99444.83;;;1.07;79.35
35848;BME280;22332;51.954;20.118;2023-01-30T03:45:49;99437.50;;;1.02;79.29
35848;BME280;22332;51.954;20.118;2023-01-30T03:48:54;99434.18;;;1.02;79.34
35848;BME280;22332;51.954;20.118;2023-01-30T03:52:00;99429.02;;;1.08;79.33
35848;BME280;22332;51.954;20.118;2023-01-30T03:55:07;99416.21;;;1.12;79.12
35848;BME280;22332;51.954;20.118;2023-01-30T03:58:15;99404.84;;;1.15;79.17
35848;BME280;22332;51.954;20.118;2023-01-30T04:01:22;99404.08;;;1.15;78.91
35848;BME280;22332;51.954;20.118;2023-01-30T04:04:27;99390.08;;;1.15;78.95
35848;BME280;22332;51.954;20.118;2023-01-30T04:07:33;99379.52;;;1.13;78.94
35848;BME280;22332;51.954;20.118;2023-01-30T04:10:39;99371.48;;;1.11;79.07
35848;BME280;22332;51.954;20.118;2023-01-30T04:13:44;99370.81;;;1.06;78.90
35848;BME280;22332;51.954;20.118;2023-01-30T04:16:51;99359.62;;;1.04;79.07
35848;BME280;22332;51.954;20.118;2023-01-30T04:20:16;99356.67;;;1.01;78.86
35848;BME280;22332;51.954;20.118;2023-01-30T04:23:27;99355.89;;;0.97;78.99
35848;BME280;22332;51.954;20.118;2023-01-30T04:26:32;99349.44;;;0.99;78.91
35848;BME280;22332;51.954;20.118;2023-01-30T04:29:39;99346.89;;;1.03;78.88
35848;BME280;22332;51.954;20.118;2023-01-30T04:32:47;99339.81;;;1.06;78.69
35848;BME280;22332;51.954;20.118;2023-01-30T04:35:54;99327.56;;;1.06;78.67
35848;BME280;22332;51.954;20.118;2023-01-30T04:39:00;99324.66;;;1.05;78.81
35848;BME280;22332;51.954;20.118;2023-01-30T04:42:07;99315.34;;;1.05;78.83
35848;BME280;22332;51.954;20.118;2023-01-30T04:45:17;99313.05;;;1.01;78.68
35848;BME280;22332;51.954;20.118;2023-01-30T04:48:24;99324.95;;;0.96;78.78
35848;BME280;22332;51.954;20.118;2023-01-30T04:51:30;99326.22;;;0.91;78.79
35848;BME280;22332;51.954;20.118;2023-01-30T04:54:35;99320.77;;;0.87;79.04
35848;BME280;22332;51.954;20.118;2023-01-30T04:57:41;99314.26;;;0.83;78.97
35848;BME280;22332;51.954;20.118;2023-01-30T05:00:48;99306.48;;;0.84;79.01
35848;BME280;22332;51.954;20.118;2023-01-30T05:03:53;99292.40;;;0.85;79.11
35848;BME280;22332;51.954;20.118;2023-01-30T05:06:59;99288.47;;;0.90;79.02
35848;BME280;22332;51.954;20.118;2023-01-30T05:10:06;99261.28;;;0.93;78.97
35848;BME280;22332;51.954;20.118;2023-01-30T05:13:12;99252.30;;;0.91;78.60
35848;BME280;22332;51.954;20.118;2023-01-30T05:16:18;99260.06;;;0.86;78.65
35848;BME280;22332;51.954;20.118;2023-01-30T05:19:24;99250.46;;;0.84;78.67
35848;BME280;22332;51.954;20.118;2023-01-30T05:22:29;99235.86;;;0.82;78.68
35848;BME280;22332;51.954;20.118;2023-01-30T05:25:35;99234.33;;;0.79;78.66
35848;BME280;22332;51.954;20.118;2023-01-30T05:28:40;99234.81;;;0.75;78.49
35848;BME280;22332;51.954;20.118;2023-01-30T05:31:46;99234.20;;;0.72;78.60
35848;BME280;22332;51.954;20.118;2023-01-30T05:34:51;99224.19;;;0.72;78.53
35848;BME280;22332;51.954;20.118;2023-01-30T05:37:57;99219.53;;;0.75;78.45
35848;BME280;22332;51.954;20.118;2023-01-30T05:41:04;99213.09;;;0.80;78.21
35848;BME280;22332;51.954;20.118;2023-01-30T05:44:10;99205.73;;;0.85;78.16
35848;BME280;22332;51.954;20.118;2023-01-30T05:47:16;99195.17;;;0.88;78.02
35848;BME280;22332;51.954;20.118;2023-01-30T05:50:22;99195.64;;;0.91;77.89
35848;BME280;22332;51.954;20.118;2023-01-30T05:53:29;99186.90;;;0.90;77.91
35848;BME280;22332;51.954;20.118;2023-01-30T05:56:37;99178.81;;;0.91;77.91
35848;BME280;22332;51.954;20.118;2023-01-30T05:59:43;99171.45;;;0.89;77.81
35848;BME280;22332;51.954;20.118;2023-01-30T06:02:48;99168.42;;;0.85;77.56
35848;BME280;22332;51.954;20.118;2023-01-30T06:05:54;99163.12;;;0.81;77.70
35848;BME280;22332;51.954;20.118;2023-01-30T06:09:00;99159.58;;;0.79;77.69
35848;BME280;22332;51.954;20.118;2023-01-30T06:12:07;99154.89;;;0.76;77.65
35848;BME280;22332;51.954;20.118;2023-01-30T06:15:13;99165.95;;;0.73;77.49
35848;BME280;22332;51.954;20.118;2023-01-30T06:18:19;99180.30;;;0.69;77.31
35848;BME280;22332;51.954;20.118;2023-01-30T06:21:24;99187.18;;;0.66;77.46
35848;BME280;22332;51.954;20.118;2023-01-30T06:24:30;99186.84;;;0.68;77.63
35848;BME280;22332;51.954;20.118;2023-01-30T06:27:36;99170.55;;;0.75;77.67
35848;BME280;22332;51.954;20.118;2023-01-30T06:30:41;99163.16;;;0.83;77.56
35848;BME280;22332;51.954;20.118;2023-01-30T06:33:47;99155.86;;;0.89;77.35
35848;BME280;22332;51.954;20.118;2023-01-30T06:36:53;99146.02;;;0.91;77.23
35848;BME280;22332;51.954;20.118;2023-01-30T06:39:58;99138.64;;;0.90;77.18
35848;BME280;22332;51.954;20.118;2023-01-30T06:43:04;99134.55;;;0.88;77.38
35848;BME280;22332;51.954;20.118;2023-01-30T06:46:10;99129.39;;;0.83;77.35
35848;BME280;22332;51.954;20.118;2023-01-30T06:49:16;99121.65;;;0.78;77.55
35848;BME280;22332;51.954;20.118;2023-01-30T06:52:21;99118.36;;;0.73;77.81
35848;BME280;22332;51.954;20.118;2023-01-30T06:55:27;99120.16;;;0.68;77.79
35848;BME280;22332;51.954;20.118;2023-01-30T06:58:34;99114.50;;;0.66;77.84
35848;BME280;22332;51.954;20.118;2023-01-30T07:01:39;99101.54;;;0.69;77.85
35848;BME280;22332;51.954;20.118;2023-01-30T07:04:45;99094.73;;;0.76;77.82
35848;BME280;22332;51.954;20.118;2023-01-30T07:07:52;99100.66;;;0.83;77.49
35848;BME280;22332;51.954;20.118;2023-01-30T07:10:57;99097.96;;;0.90;77.21
35848;BME280;22332;51.954;20.118;2023-01-30T07:14:03;99099.67;;;0.95;76.85
35848;BME280;22332;51.954;20.118;2023-01-30T07:17:08;99089.10;;;0.96;76.78
35848;BME280;22332;51.954;20.118;2023-01-30T07:20:14;99071.64;;;0.97;76.69
35848;BME280;22332;51.954;20.118;2023-01-30T07:23:20;99060.21;;;0.96;76.52
35848;BME280;22332;51.954;20.118;2023-01-30T07:26:25;99052.70;;;0.94;76.71
35848;BME280;22332;51.954;20.118;2023-01-30T07:29:33;99042.60;;;0.91;76.57
35848;BME280;22332;51.954;20.118;2023-01-30T07:32:38;99035.98;;;0.88;76.75
35848;BME280;22332;51.954;20.118;2023-01-30T07:35:44;99030.40;;;0.86;76.61
35848;BME280;22332;51.954;20.118;2023-01-30T07:38:50;99028.51;;;0.83;76.94
35848;BME280;22332;51.954;20.118;2023-01-30T07:41:55;99027.30;;;0.83;76.87
35848;BME280;22332;51.954;20.118;2023-01-30T07:45:02;99023.06;;;0.81;77.00
35848;BME280;22332;51.954;20.118;2023-01-30T07:48:09;99022.92;;;0.76;77.15
35848;BME280;22332;51.954;20.118;2023-01-30T07:51:15;99022.13;;;0.73;77.40
35848;BME280;22332;51.954;20.118;2023-01-30T07:54:20;99023.42;;;0.76;77.51
35848;BME280;22332;51.954;20.118;2023-01-30T07:57:26;99022.44;;;0.80;77.63
35848;BME280;22332;51.954;20.118;2023-01-30T08:00:32;99027.28;;;0.83;77.70
35848;BME280;22332;51.954;20.118;2023-01-30T08:03:38;99018.06;;;0.87;77.70
35848;BME280;22332;51.954;20.118;2023-01-30T08:06:44;99013.91;;;0.86;77.86
35848;BME280;22332;51.954;20.118;2023-01-30T08:09:50;99011.88;;;0.85;77.83
35848;BME280;22332;51.954;20.118;2023-01-30T08:12:55;99001.58;;;0.85;77.95
35848;BME280;22332;51.954;20.118;2023-01-30T08:16:01;98997.17;;;0.88;77.87
35848;BME280;22332;51.954;20.118;2023-01-30T08:19:07;99002.77;;;0.88;77.76
35848;BME280;22332;51.954;20.118;2023-01-30T08:22:13;98998.20;;;0.88;77.72
35848;BME280;22332;51.954;20.118;2023-01-30T08:25:20;99000.58;;;0.87;77.73
35848;BME280;22332;51.954;20.118;2023-01-30T08:28:26;99002.93;;;0.83;77.60
35848;BME280;22332;51.954;20.118;2023-01-30T08:31:32;98999.54;;;0.84;77.87
35848;BME280;22332;51.954;20.118;2023-01-30T08:34:37;98995.27;;;0.90;77.89
35848;BME280;22332;51.954;20.118;2023-01-30T08:37:43;98982.72;;;0.95;77.88
35848;BME280;22332;51.954;20.118;2023-01-30T08:40:49;98975.70;;;1.02;77.92
35848;BME280;22332;51.954;20.118;2023-01-30T08:43:55;98968.67;;;1.05;78.03
35848;BME280;22332;51.954;20.118;2023-01-30T08:47:00;98965.33;;;1.02;78.73
35848;BME280;22332;51.954;20.118;2023-01-30T08:50:09;98962.77;;;0.97;78.47
35848;BME280;22332;51.954;20.118;2023-01-30T08:53:15;98967.99;;;0.97;78.67
35848;BME280;22332;51.954;20.118;2023-01-30T08:56:20;98961.84;;;0.96;78.61
35848;BME280;22332;51.954;20.118;2023-01-30T08:59:26;98955.92;;;0.93;78.88
35848;BME280;22332;51.954;20.118;2023-01-30T09:02:31;98948.67;;;0.92;79.00
35848;BME280;22332;51.954;20.118;2023-01-30T09:05:37;98943.23;;;0.96;79.07
35848;BME280;22332;51.954;20.118;2023-01-30T09:08:43;98940.48;;;1.05;79.03
35848;BME280;22332;51.954;20.118;2023-01-30T09:11:49;98930.19;;;1.14;79.02
35848;BME280;22332;51.954;20.118;2023-01-30T09:14:54;98917.59;;;1.23;78.96
35848;BME280;22332;51.954;20.118;2023-01-30T09:18:01;98926.91;;;1.29;78.91
35848;BME280;22332;51.954;20.118;2023-01-30T09:21:09;98925.50;;;1.33;78.97
35848;BME280;22332;51.954;20.118;2023-01-30T09:24:15;98920.77;;;1.35;79.06
35848;BME280;22332;51.954;20.118;2023-01-30T09:27:20;98913.27;;;1.35;78.95
35848;BME280;22332;51.954;20.118;2023-01-30T09:30:26;98913.39;;;1.36;78.99
35848;BME280;22332;51.954;20.118;2023-01-30T09:33:32;98904.27;;;1.36;78.95
35848;BME280;22332;51.954;20.118;2023-01-30T09:36:37;98902.54;;;1.38;79.14
35848;BME280;22332;51.954;20.118;2023-01-30T09:39:43;98895.23;;;1.43;79.24
35848;BME280;22332;51.954;20.118;2023-01-30T09:43:03;98888.60;;;1.47;79.24
35848;BME280;22332;51.954;20.118;2023-01-30T09:46:20;98887.12;;;1.54;79.32
35848;BME280;22332;51.954;20.118;2023-01-30T09:49:36;98887.69;;;1.58;79.16
35848;BME280;22332;51.954;20.118;2023-01-30T09:52:54;98871.53;;;1.58;79.25
35848;BME280;22332;51.954;20.118;2023-01-30T09:56:01;98864.87;;;1.59;79.28
35848;BME280;22332;51.954;20.118;2023-01-30T09:59:09;98861.19;;;1.59;79.30
35848;BME280;22332;51.954;20.118;2023-01-30T10:05:50;98849.70;;;1.56;79.90
35848;BME280;22332;51.954;20.118;2023-01-30T10:09:01;98842.83;;;1.56;79.92
35848;BME280;22332;51.954;20.118;2023-01-30T10:12:24;98842.83;;;1.62;80.02
35848;BME280;22332;51.954;20.118;2023-01-30T10:15:45;98831.65;;;1.70;80.54
35848;BME280;22332;51.954;20.118;2023-01-30T10:19:03;98821.77;;;1.81;80.36
35848;BME280;22332;51.954;20.118;2023-01-30T10:22:17;98824.95;;;1.91;80.20
35848;BME280;22332;51.954;20.118;2023-01-30T10:25:30;98817.87;;;1.93;80.37
35848;BME280;22332;51.954;20.118;2023-01-30T10:28:39;98812.70;;;1.90;80.42
35848;BME280;22332;51.954;20.118;2023-01-30T10:31:48;98801.71;;;1.86;80.51
35848;BME280;22332;51.954;20.118;2023-01-30T10:34:57;98795.56;;;1.84;80.48
35848;BME280;22332;51.954;20.118;2023-01-30T10:38:10;98800.53;;;1.83;80.47
35848;BME280;22332;51.954;20.118;2023-01-30T10:41:23;98797.28;;;1.86;80.61
35848;BME280;22332;51.954;20.118;2023-01-30T10:44:31;98788.34;;;1.88;80.43
35848;BME280;22332;51.954;20.118;2023-01-30T10:47:46;98784.21;;;1.89;80.56
35848;BME280;22332;51.954;20.118;2023-01-30T10:50:58;98780.52;;;1.93;80.57
35848;BME280;22332;51.954;20.118;2023-01-30T10:54:10;98781.52;;;2.01;80.41
35848;BME280;22332;51.954;20.118;2023-01-30T10:57:22;98778.77;;;2.00;80.33
35848;BME280;22332;51.954;20.118;2023-01-30T11:00:35;98772.87;;;2.01;80.55
35848;BME280;22332;51.954;20.118;2023-01-30T11:03:47;98764.90;;;2.02;80.59
35848;BME280;22332;51.954;20.118;2023-01-30T11:06:56;98760.81;;;2.08;80.73
35848;BME280;22332;51.954;20.118;2023-01-30T11:10:14;98751.95;;;2.20;81.07
35848;BME280;22332;51.954;20.118;2023-01-30T11:13:21;98752.47;;;2.29;80.97
35848;BME280;22332;51.954;20.118;2023-01-30T11:16:31;98751.88;;;2.34;80.75
35848;BME280;22332;51.954;20.118;2023-01-30T11:19:38;98746.77;;;2.38;80.85
35848;BME280;22332;51.954;20.118;2023-01-30T11:22:49;98738.56;;;2.39;80.78
35848;BME280;22332;51.954;20.118;2023-01-30T11:25:57;98731.81;;;2.34;80.90
35848;BME280;22332;51.954;20.118;2023-01-30T11:29:16;98733.08;;;2.30;80.89
35848;BME280;22332;51.954;20.118;2023-01-30T11:32:29;98723.66;;;2.24;80.96
35848;BME280;22332;51.954;20.118;2023-01-30T11:35:41;98715.17;;;2.22;81.12
35848;BME280;22332;51.954;20.118;2023-01-30T11:38:57;98715.60;;;2.27;81.45
35848;BME280;22332;51.954;20.118;2023-01-30T11:42:08;98716.80;;;2.33;81.27
35848;BME280;22332;51.954;20.118;2023-01-30T11:45:15;98713.19;;;2.43;81.16
35848;BME280;22332;51.954;20.118;2023-01-30T11:48:25;98700.61;;;2.46;81.27
35848;BME280;22332;51.954;20.118;2023-01-30T11:51:33;98694.84;;;2.48;81.15
35848;BME280;22332;51.954;20.118;2023-01-30T11:54:41;98686.64;;;2.49;80.96
35848;BME280;22332;51.954;20.118;2023-01-30T11:57:50;98693.15;;;2.47;80.88
35848;BME280;22332;51.954;20.118;2023-01-30T12:00:58;98688.63;;;2.41;80.88
35848;BME280;22332;51.954;20.118;2023-01-30T12:04:07;98678.45;;;2.43;80.98
35848;BME280;22332;51.954;20.118;2023-01-30T12:07:21;98679.23;;;2.42;81.12
35848;BME280;22332;51.954;20.118;2023-01-30T12:10:30;98681.45;;;2.44;80.91
35848;BME280;22332;51.954;20.118;2023-01-30T12:13:38;98683.78;;;2.46;81.00
35848;BME280;22332;51.954;20.118;2023-01-30T12:16:55;98685.73;;;2.42;81.01
35848;BME280;22332;51.954;20.118;2023-01-30T12:20:10;98682.73;;;2.38;81.22
35848;BME280;22332;51.954;20.118;2023-01-30T12:23:20;98686.89;;;2.36;81.18
35848;BME280;22332;51.954;20.118;2023-01-30T12:26:32;98680.94;;;2.34;81.10
35848;BME280;22332;51.954;20.118;2023-01-30T12:29:53;98675.13;;;2.23;81.33
35848;BME280;22332;51.954;20.118;2023-01-30T12:33:03;98666.15;;;2.20;81.26
35848;BME280;22332;51.954;20.118;2023-01-30T12:36:15;98670.23;;;2.19;81.53
35848;BME280;22332;51.954;20.118;2023-01-30T12:39:32;98673.73;;;2.23;81.66
35848;BME280;22332;51.954;20.118;2023-01-30T12:43:05;98672.86;;;2.30;81.47
35848;BME280;22332;51.954;20.118;2023-01-30T12:50:03;98685.08;;;2.33;81.58
35848;BME280;22332;51.954;20.118;2023-01-30T12:53:28;98693.13;;;2.29;81.45
35848;BME280;22332;51.954;20.118;2023-01-30T12:56:44;98686.31;;;2.25;81.49
35848;BME280;22332;51.954;20.118;2023-01-30T13:00:04;98691.21;;;2.22;81.54
35848;BME280;22332;51.954;20.118;2023-01-30T13:03:22;98688.31;;;2.21;81.75
35848;BME280;22332;51.954;20.118;2023-01-30T13:06:43;98680.96;;;2.22;81.90
35848;BME280;22332;51.954;20.118;2023-01-30T13:09:56;98677.88;;;2.27;82.30
35848;BME280;22332;51.954;20.118;2023-01-30T13:13:13;98680.66;;;2.33;81.97
35848;BME280;22332;51.954;20.118;2023-01-30T13:16:29;98681.30;;;2.34;81.99
35848;BME280;22332;51.954;20.118;2023-01-30T13:19:44;98677.02;;;2.33;82.10
35848;BME280;22332;51.954;20.118;2023-01-30T13:22:56;98678.06;;;2.31;82.00
35848;BME280;22332;51.954;20.118;2023-01-30T13:26:08;98676.57;;;2.28;82.12
35848;BME280;22332;51.954;20.118;2023-01-30T13:29:17;98679.78;;;2.28;82.20
35848;BME280;22332;51.954;20.118;2023-01-30T13:32:34;98677.31;;;2.28;82.26
35848;BME280;22332;51.954;20.118;2023-01-30T13:35:45;98677.25;;;2.27;82.18
35848;BME280;22332;51.954;20.118;2023-01-30T13:38:59;98677.04;;;2.29;82.37
35848;BME280;22332;51.954;20.118;2023-01-30T13:42:11;98677.23;;;2.31;82.35
35848;BME280;22332;51.954;20.118;2023-01-30T13:45:20;98677.89;;;2.29;82.41
35848;BME280;22332;51.954;20.118;2023-01-30T13:48:36;98678.34;;;2.28;82.48
35848;BME280;22332;51.954;20.118;2023-01-30T13:51:47;98682.45;;;2.27;82.70
35848;BME280;22332;51.954;20.118;2023-01-30T13:54:59;98681.45;;;2.25;82.71
35848;BME280;22332;51.954;20.118;2023-01-30T13:58:22;98680.41;;;2.23;82.82
35848;BME280;22332;51.954;20.118;2023-01-30T14:02:13;98672.88;;;2.26;82.86
35848;BME280;22332;51.954;20.118;2023-01-30T14:06:00;98675.26;;;2.31;82.85
35848;BME280;22332;51.954;20.118;2023-01-30T14:09:20;98679.92;;;2.32;82.89
35848;BME280;22332;51.954;20.118;2023-01-30T14:12:34;98679.26;;;2.30;82.92
35848;BME280;22332;51.954;20.118;2023-01-30T14:15:41;98679.20;;;2.24;82.89
35848;BME280;22332;51.954;20.118;2023-01-30T14:18:55;98683.63;;;2.20;83.13
35848;BME280;22332;51.954;20.118;2023-01-30T14:22:04;98689.01;;;2.19;83.15
35848;BME280;22332;51.954;20.118;2023-01-30T14:25:47;98691.05;;;2.25;83.22
35848;BME280;22332;51.954;20.118;2023-01-30T14:28:53;98693.94;;;2.32;83.32
35848;BME280;22332;51.954;20.118;2023-01-30T14:31:59;98689.55;;;2.36;83.14
35848;BME280;22332;51.954;20.118;2023-01-30T14:35:21;98679.16;;;2.36;83.28
35848;BME280;22332;51.954;20.118;2023-01-30T14:38:27;98670.63;;;2.35;83.32
35848;BME280;22332;51.954;20.118;2023-01-30T14:41:33;98675.44;;;2.31;83.48
35848;BME280;22332;51.954;20.118;2023-01-30T14:44:56;98674.40;;;2.27;83.43
35848;BME280;22332;51.954;20.118;2023-01-30T14:48:28;98668.55;;;2.29;83.52
35848;BME280;22332;51.954;20.118;2023-01-30T14:51:40;98661.32;;;2.34;83.71
35848;BME280;22332;51.954;20.118;2023-01-30T14:54:51;98657.52;;;2.39;83.68
35848;BME280;22332;51.954;20.118;2023-01-30T14:58:00;98661.38;;;2.43;83.84
35848;BME280;22332;51.954;20.118;2023-01-30T15:01:06;98653.91;;;2.44;83.76
35848;BME280;22332;51.954;20.118;2023-01-30T15:04:14;98659.48;;;2.45;83.67
35848;BME280;22332;51.954;20.118;2023-01-30T15:07:23;98658.87;;;2.44;83.78
35848;BME280;22332;51.954;20.118;2023-01-30T15:10:46;98656.98;;;2.41;83.59
35848;BME280;22332;51.954;20.118;2023-01-30T15:14:02;98656.72;;;2.38;83.72
35848;BME280;22332;51.954;20.118;2023-01-30T15:17:19;98666.41;;;2.40;83.87
35848;BME280;22332;51.954;20.118;2023-01-30T15:20:41;98669.88;;;2.42;83.99
35848;BME280;22332;51.954;20.118;2023-01-30T15:24:00;98669.57;;;2.48;83.72
35848;BME280;22332;51.954;20.118;2023-01-30T15:27:14;98665.92;;;2.51;83.77
35848;BME280;22332;51.954;20.118;2023-01-30T15:30:34;98672.30;;;2.52;83.88
35848;BME280;22332;51.954;20.118;2023-01-30T15:33:47;98678.68;;;2.50;83.70
35848;BME280;22332;51.954;20.118;2023-01-30T15:36:55;98678.96;;;2.47;83.91
35848;BME280;22332;51.954;20.118;2023-01-30T15:40:22;98683.56;;;2.44;83.96
35848;BME280;22332;51.954;20.118;2023-01-30T15:43:51;98696.09;;;2.45;83.99
35848;BME280;22332;51.954;20.118;2023-01-30T15:47:23;98697.27;;;2.51;83.91
35848;BME280;22332;51.954;20.118;2023-01-30T15:50:48;98696.27;;;2.57;83.98
35848;BME280;22332;51.954;20.118;2023-01-30T15:53:59;98691.34;;;2.59;83.95
35848;BME280;22332;51.954;20.118;2023-01-30T15:57:10;98693.50;;;2.60;83.92
35848;BME280;22332;51.954;20.118;2023-01-30T16:00:27;98696.46;;;2.60;83.94
35848;BME280;22332;51.954;20.118;2023-01-30T16:03:38;98690.81;;;2.57;84.05
35848;BME280;22332;51.954;20.118;2023-01-30T16:06:43;98698.05;;;2.59;83.90
35848;BME280;22332;51.954;20.118;2023-01-30T16:09:56;98706.59;;;2.63;84.06
35848;BME280;22332;51.954;20.118;2023-01-30T16:13:02;98713.08;;;2.69;83.85
35848;BME280;22332;51.954;20.118;2023-01-30T16:16:10;98713.19;;;2.73;83.97
35848;BME280;22332;51.954;20.118;2023-01-30T16:19:22;98714.74;;;2.73;83.90
35848;BME280;22332;51.954;20.118;2023-01-30T16:22:33;98719.46;;;2.72;83.85
35848;BME280;22332;51.954;20.118;2023-01-30T16:25:39;98725.64;;;2.70;83.97
35848;BME280;22332;51.954;20.118;2023-01-30T16:28:45;98716.71;;;2.67;84.00
35848;BME280;22332;51.954;20.118;2023-01-30T16:31:51;98705.91;;;2.65;83.93
35848;BME280;22332;51.954;20.118;2023-01-30T16:35:15;98703.70;;;2.64;83.91
35848;BME280;22332;51.954;20.118;2023-01-30T16:38:33;98705.80;;;2.64;83.97
35848;BME280;22332;51.954;20.118;2023-01-30T16:41:40;98701.97;;;2.60;83.88
35848;BME280;22332;51.954;20.118;2023-01-30T16:44:47;98704.79;;;2.52;83.66
35848;BME280;22332;51.954;20.118;2023-01-30T16:47:53;98702.24;;;2.43;83.95
35848;BME280;22332;51.954;20.118;2023-01-30T16:51:12;98706.05;;;2.34;84.11
35848;BME280;22332;51.954;20.118;2023-01-30T16:54:24;98704.54;;;2.27;84.32
35848;BME280;22332;51.954;20.118;2023-01-30T16:57:35;98710.27;;;2.24;84.48
35848;BME280;22332;51.954;20.118;2023-01-30T17:00:43;98714.48;;;2.28;84.28